Terminal Aerodrome Forecast
Issued by NWS Boston, MA

Home | Current Version | Previous Version | Text Only | Print | Product List | Glossary On
Versions: 1 2 3 4 5 6 7 8 9 10 11 12 13 14 15 16 17 18 19 20 21 22 23 24 25 26 27 28 29 30 31 32 33 34 35 36 37 38 39 40 41 42 43 44 45 46 47
000
FTUS41 KBOX 282333
TAFBOS
TAF
KBOS 282333Z 2900/3006 15009KT P6SM SCT110
     FM290300 20010KT P6SM SCT150
     FM290600 21007KT P6SM VCSH BKN070
     FM291300 25008KT P6SM SCT200
     FM291600 28009KT P6SM SCT250
     FM292100 32009KT P6SM FEW200=

USA.gov is the U.S. government's official web portal to all federal, state and local government web resources and services.